createdAt,value
2023-02-11T00:01:30.819Z,77.21
2023-02-11T00:03:34.170Z,77.46
2023-02-11T00:05:37.605Z,77.35
2023-02-11T00:07:40.899Z,77.30
2023-02-11T00:09:44.252Z,77.03
2023-02-11T00:11:47.531Z,77.10
2023-02-11T00:13:52.505Z,76.99
2023-02-11T00:15:56.320Z,77.01
2023-02-11T00:17:59.601Z,77.10
2023-02-11T00:20:03.022Z,76.87
2023-02-11T00:22:06.340Z,76.84
2023-02-11T00:24:09.651Z,76.76
2023-02-11T00:26:14.163Z,77.02
2023-02-11T00:28:18.987Z,76.94
2023-02-11T00:30:23.988Z,77.04
2023-02-11T00:32:27.385Z,77.99
2023-02-11T00:34:30.675Z,78.07
2023-02-11T00:36:34.032Z,77.51
2023-02-11T00:38:37.485Z,78.06
2023-02-11T00:40:41.082Z,77.84
2023-02-11T00:42:44.397Z,78.01
2023-02-11T00:44:47.749Z,77.65
2023-02-11T00:46:54.861Z,77.67
2023-02-11T00:48:58.268Z,77.60
2023-02-11T00:51:02.071Z,78.18
2023-02-11T00:53:05.466Z,78.14
2023-02-11T00:55:09.653Z,78.86
2023-02-11T00:57:13.089Z,79.11
2023-02-11T00:59:16.432Z,79.03
2023-02-11T01:01:20.775Z,78.72
2023-02-11T01:03:25.560Z,78.64
2023-02-11T01:05:29.227Z,78.16
2023-02-11T01:07:32.643Z,78.23
2023-02-11T01:09:38.613Z,78.26
2023-02-11T01:11:42.372Z,78.45
2023-02-11T01:13:46.535Z,78.18
2023-02-11T01:15:50.326Z,78.35
2023-02-11T01:17:54.256Z,78.17
2023-02-11T01:19:59.063Z,77.98
2023-02-11T01:22:02.493Z,77.87
2023-02-11T01:24:06.132Z,77.91
2023-02-11T01:26:09.497Z,77.82
2023-02-11T01:28:18.049Z,78.24
2023-02-11T01:30:21.361Z,78.53
2023-02-11T01:32:24.695Z,78.42
2023-02-11T01:34:30.472Z,79.16
2023-02-11T01:36:35.092Z,79.03
2023-02-11T01:38:40.775Z,78.98
2023-02-11T01:40:48.577Z,79.55
2023-02-11T01:42:52.586Z,79.07
2023-02-11T01:44:58.543Z,79.12
2023-02-11T01:47:04.686Z,79.09
2023-02-11T01:49:11.705Z,79.05
2023-02-11T01:51:19.560Z,78.88
2023-02-11T01:53:42.086Z,79.21
2023-02-11T01:56:03.359Z,79.44
2023-02-11T01:58:07.524Z,79.29
2023-02-11T02:00:14.691Z,79.39
2023-02-11T02:02:25.014Z,79.42
2023-02-11T02:04:34.268Z,79.45
2023-02-11T02:06:43.173Z,79.55
2023-02-11T02:08:54.465Z,79.64
2023-02-11T02:11:00.797Z,79.85
2023-02-11T02:13:04.190Z,79.96
2023-02-11T02:15:20.203Z,80.31
2023-02-11T02:17:33.902Z,80.54
2023-02-11T02:20:04.205Z,80.75
2023-02-11T02:22:32.875Z,81.15
2023-02-11T02:25:10.646Z,80.86
2023-02-11T02:27:39.071Z,80.63
2023-02-11T02:30:18.793Z,80.45
2023-02-11T02:33:21.668Z,80.46
2023-02-11T02:35:33.547Z,80.27
2023-02-11T02:37:42.093Z,81.01
2023-02-11T02:39:49.647Z,81.98
2023-02-11T02:41:54.397Z,82.14
2023-02-11T02:43:58.269Z,82.39
2023-02-11T02:46:12.657Z,84.21
2023-02-11T02:48:27.798Z,84.20
2023-02-11T02:50:37.653Z,83.38
2023-02-11T02:52:53.586Z,83.65
2023-02-11T02:55:20.111Z,83.36
2023-02-11T02:57:33.377Z,83.29
2023-02-11T02:59:48.830Z,83.19
2023-02-11T03:02:06.142Z,83.12
2023-02-11T03:04:18.431Z,82.84
2023-02-11T03:06:31.883Z,82.99
2023-02-11T03:08:41.664Z,82.75
2023-02-11T03:10:48.311Z,83.00
2023-02-11T03:12:54.613Z,83.96
2023-02-11T03:15:00.301Z,84.12
2023-02-11T03:17:06.941Z,83.83
2023-02-11T03:19:14.250Z,83.43
2023-02-11T03:21:19.256Z,82.98
2023-02-11T03:23:29.486Z,83.69
2023-02-11T03:25:38.807Z,83.66
2023-02-11T03:27:47.586Z,83.48
2023-02-11T03:29:56.434Z,83.17
2023-02-11T03:32:04.716Z,83.43
2023-02-11T03:34:14.441Z,83.86
2023-02-11T03:36:23.942Z,84.10
2023-02-11T03:38:32.364Z,83.99
2023-02-11T03:40:39.258Z,84.39
2023-02-11T03:42:45.780Z,84.65
2023-02-11T03:44:52.783Z,84.17
2023-02-11T03:46:56.975Z,84.38
2023-02-11T03:49:04.488Z,83.97
2023-02-11T03:51:10.710Z,83.46
2023-02-11T03:53:15.852Z,83.69
2023-02-11T03:55:25.822Z,83.52
2023-02-11T03:57:29.479Z,83.17
2023-02-11T03:59:32.866Z,82.69
2023-02-11T04:01:36.219Z,82.51
2023-02-11T04:03:39.770Z,82.37
2023-02-11T04:05:43.236Z,82.22
2023-02-11T04:07:46.484Z,81.89
2023-02-11T04:09:49.902Z,81.84
2023-02-11T04:11:54.597Z,81.47
2023-02-11T04:13:57.935Z,81.77
2023-02-11T04:16:01.346Z,82.06
2023-02-11T04:18:05.373Z,81.62
2023-02-11T04:20:09.831Z,81.42
2023-02-11T04:22:13.215Z,82.02
2023-02-11T04:24:16.578Z,82.40
2023-02-11T04:26:20.011Z,82.30
2023-02-11T04:28:24.820Z,83.54
2023-02-11T04:30:28.202Z,82.99
2023-02-11T04:32:32.639Z,83.03
2023-02-11T04:34:36.120Z,82.67
2023-02-11T04:36:39.475Z,83.75
2023-02-11T04:38:42.825Z,83.55
2023-02-11T04:40:46.238Z,83.84
2023-02-11T04:42:49.548Z,83.60
2023-02-11T04:44:54.289Z,83.97
2023-02-11T04:46:57.925Z,84.55
2023-02-11T04:49:01.381Z,83.88
2023-02-11T04:51:05.166Z,83.44
2023-02-11T04:53:08.432Z,83.84
2023-02-11T04:55:12.979Z,83.23
2023-02-11T04:57:16.397Z,83.20
2023-02-11T04:59:19.900Z,83.31
2023-02-11T05:01:24.665Z,82.80
2023-02-11T05:03:27.963Z,82.79
2023-02-11T05:05:31.283Z,82.55
2023-02-11T05:07:34.955Z,82.56
2023-02-11T05:09:38.265Z,82.40
2023-02-11T05:11:41.888Z,82.23
2023-02-11T05:13:45.429Z,82.27
2023-02-11T05:15:49.126Z,82.29
2023-02-11T05:17:54.220Z,82.44
2023-02-11T05:19:57.582Z,82.90
2023-02-11T05:22:03.424Z,82.59
2023-02-11T05:24:08.077Z,82.76
2023-02-11T05:26:12.320Z,82.69
2023-02-11T05:28:15.737Z,82.91
2023-02-11T05:30:19.215Z,83.12
2023-02-11T05:32:22.618Z,82.87
2023-02-11T05:34:27.316Z,83.38
2023-02-11T05:36:33.470Z,83.42
2023-02-11T05:38:38.088Z,83.56
2023-02-11T05:40:41.810Z,83.48
2023-02-11T05:42:45.150Z,83.90
2023-02-11T05:44:50.549Z,84.11
2023-02-11T05:46:54.047Z,84.26
2023-02-11T05:48:57.585Z,86.43
2023-02-11T05:51:02.257Z,86.49
2023-02-11T05:53:06.822Z,87.00
2023-02-11T05:55:10.333Z,87.12
2023-02-11T05:57:13.766Z,87.76
2023-02-11T05:59:17.371Z,88.71
2023-02-11T06:01:20.895Z,89.10
2023-02-11T06:03:24.190Z,88.98
2023-02-11T06:05:27.868Z,89.02
2023-02-11T06:07:32.593Z,88.96
2023-02-11T06:09:35.891Z,88.97
2023-02-11T06:11:39.364Z,89.92
2023-02-11T06:13:42.821Z,90.21
2023-02-11T06:15:46.394Z,90.40
2023-02-11T06:17:49.682Z,89.88
2023-02-11T06:19:53.010Z,89.56
2023-02-11T06:21:56.963Z,89.19
2023-02-11T06:24:01.709Z,89.12
2023-02-11T06:26:07.010Z,89.64
2023-02-11T06:28:10.743Z,89.50
2023-02-11T06:30:15.207Z,90.63
2023-02-11T06:32:39.574Z,90.82
2023-02-11T06:34:42.300Z,90.59
2023-02-11T06:36:45.720Z,90.34
2023-02-11T06:38:49.995Z,90.65
2023-02-11T06:40:54.647Z,90.82
2023-02-11T06:42:58.006Z,90.98
2023-02-11T06:45:01.403Z,90.79
2023-02-11T06:47:05.159Z,90.82
2023-02-11T06:49:08.610Z,90.84
2023-02-11T06:51:13.716Z,90.47
2023-02-11T06:53:17.089Z,91.36
2023-02-11T06:55:20.668Z,91.53
2023-02-11T06:57:25.407Z,91.29
2023-02-11T06:59:29.027Z,91.23
2023-02-11T07:01:32.506Z,91.08
2023-02-11T07:03:37.672Z,91.01
2023-02-11T07:05:43.860Z,91.79
2023-02-11T07:07:47.308Z,91.92
2023-02-11T07:09:50.640Z,91.87
2023-02-11T07:11:54.152Z,92.19
2023-02-11T07:14:03.606Z,92.45
2023-02-11T07:16:07.554Z,92.61
2023-02-11T07:18:13.618Z,92.78
2023-02-11T07:20:18.267Z,92.85
2023-02-11T07:22:21.701Z,93.47
2023-02-11T07:24:25.189Z,93.98
2023-02-11T07:26:28.947Z,94.00
2023-02-11T07:28:32.823Z,94.37
2023-02-11T07:30:37.552Z,94.37
2023-02-11T07:32:40.974Z,94.49
2023-02-11T07:34:44.374Z,94.56
2023-02-11T07:36:48.932Z,94.51
2023-02-11T07:38:52.388Z,94.41
2023-02-11T07:40:55.708Z,94.49
2023-02-11T07:42:59.297Z,93.87
2023-02-11T07:45:02.744Z,94.33
2023-02-11T07:47:07.623Z,94.15
2023-02-11T07:49:11.409Z,94.08
2023-02-11T07:51:16.877Z,93.71
2023-02-11T07:53:20.225Z,94.06
2023-02-11T07:55:23.554Z,94.01
2023-02-11T07:57:26.902Z,94.23
2023-02-11T07:59:30.246Z,94.41
2023-02-11T08:01:33.790Z,94.56
2023-02-11T08:03:39.256Z,94.90
2023-02-11T08:05:43.810Z,94.70
2023-02-11T08:07:47.423Z,94.97
2023-02-11T08:09:50.780Z,95.20
2023-02-11T08:11:54.361Z,95.31
2023-02-11T08:13:58.254Z,95.92
2023-02-11T08:16:01.702Z,95.91
2023-02-11T08:18:05.192Z,95.92
2023-02-11T08:20:10.828Z,95.87
2023-02-11T08:22:14.558Z,96.06
2023-02-11T08:24:18.009Z,96.22
2023-02-11T08:26:23.669Z,96.67
2023-02-11T08:28:27.137Z,97.21
2023-02-11T08:30:30.551Z,97.64
2023-02-11T08:32:35.878Z,98.21
2023-02-11T08:34:39.197Z,98.43
2023-02-11T08:36:44.913Z,97.59
2023-02-11T08:38:48.424Z,97.37
2023-02-11T08:40:52.002Z,97.00
2023-02-11T08:42:55.494Z,97.18
2023-02-11T08:44:58.953Z,97.52
2023-02-11T08:47:02.434Z,98.06
2023-02-11T08:49:05.959Z,97.72
2023-02-11T08:51:10.891Z,97.76
2023-02-11T08:53:15.711Z,97.45
2023-02-11T08:55:19.411Z,98.12
2023-02-11T08:57:22.757Z,98.89
2023-02-11T08:59:26.332Z,99.01
2023-02-11T09:01:31.443Z,98.84
2023-02-11T09:03:34.831Z,98.61
2023-02-11T09:05:42.084Z,98.43
2023-02-11T09:07:45.503Z,98.12
2023-02-11T09:09:50.199Z,100.00
2023-02-11T09:11:57.190Z,100.00
2023-02-11T09:14:00.914Z,97.78
2023-02-11T09:16:06.367Z,97.25
2023-02-11T09:18:09.728Z,97.35
2023-02-11T09:20:13.029Z,97.36
2023-02-11T09:22:16.744Z,97.19
2023-02-11T09:24:20.305Z,97.08
2023-02-11T09:26:27.657Z,97.26
2023-02-11T09:28:31.183Z,96.66
2023-02-11T09:30:34.844Z,96.51
2023-02-11T09:32:38.355Z,96.94
2023-02-11T09:34:42.532Z,97.00
2023-02-11T09:36:45.950Z,96.68
2023-02-11T09:38:50.038Z,96.43
2023-02-11T09:40:53.490Z,96.78
2023-02-11T09:43:04.588Z,96.62
2023-02-11T09:45:17.601Z,96.92
2023-02-11T09:47:28.567Z,97.07
2023-02-11T09:49:36.405Z,96.54
2023-02-11T09:51:46.335Z,97.07
2023-02-11T09:53:53.762Z,97.22
2023-02-11T09:55:59.831Z,97.23
2023-02-11T09:58:08.759Z,97.23
2023-02-11T10:00:20.103Z,96.91
2023-02-11T10:02:28.988Z,97.34
2023-02-11T10:04:51.219Z,97.16
2023-02-11T10:06:57.542Z,96.96
2023-02-11T10:09:14.230Z,97.29
2023-02-11T10:11:31.519Z,97.03
2023-02-11T10:13:52.361Z,97.40
2023-02-11T10:16:06.934Z,97.46
2023-02-11T10:18:27.901Z,97.95
2023-02-11T10:20:36.855Z,97.42
2023-02-11T10:22:45.483Z,97.54
2023-02-11T10:24:53.011Z,97.82
2023-02-11T10:26:56.602Z,97.47
2023-02-11T10:29:08.246Z,97.49
2023-02-11T10:31:16.396Z,97.37
2023-02-11T10:33:27.028Z,97.62
2023-02-11T10:35:30.516Z,98.42
2023-02-11T10:37:34.027Z,98.37
2023-02-11T10:39:39.909Z,98.12
2023-02-11T10:41:46.205Z,98.26
2023-02-11T10:43:50.812Z,98.41
2023-02-11T10:45:57.979Z,98.62
2023-02-11T10:48:01.962Z,98.47
2023-02-11T10:50:20.257Z,98.59
2023-02-11T10:52:25.878Z,98.65
2023-02-11T10:54:29.295Z,98.78
2023-02-11T10:56:35.570Z,98.76
2023-02-11T10:58:45.812Z,97.97
2023-02-11T11:00:53.929Z,98.13
2023-02-11T11:03:01.292Z,97.63
2023-02-11T11:05:07.089Z,97.74
2023-02-11T11:07:19.143Z,97.74
2023-02-11T11:09:30.945Z,97.68
2023-02-11T11:11:34.440Z,98.30
2023-02-11T11:13:39.880Z,98.16
2023-02-11T11:15:43.321Z,98.09
2023-02-11T11:17:46.882Z,98.30
2023-02-11T11:19:51.711Z,98.00
2023-02-11T11:21:56.985Z,97.87
2023-02-11T11:24:03.335Z,97.80
2023-02-11T11:26:11.123Z,97.40
2023-02-11T11:28:25.216Z,97.85
2023-02-11T11:30:39.804Z,98.07
2023-02-11T11:32:43.726Z,98.04
2023-02-11T11:34:54.046Z,97.99
2023-02-11T11:36:59.527Z,97.52
2023-02-11T11:39:13.596Z,97.51
2023-02-11T11:41:21.859Z,97.18
2023-02-11T11:43:25.347Z,97.22
2023-02-11T11:45:28.838Z,97.06
2023-02-11T11:47:39.380Z,98.05
2023-02-11T11:49:48.630Z,97.50
2023-02-11T11:51:59.816Z,97.37
2023-02-11T11:54:07.390Z,96.98
2023-02-11T11:56:15.315Z,97.06
2023-02-11T11:58:20.986Z,97.03
2023-02-11T12:00:30.501Z,97.79
2023-02-11T12:03:24.694Z,98.06
2023-02-11T12:05:34.287Z,97.91
2023-02-11T12:07:54.102Z,97.49
2023-02-11T12:10:23.943Z,97.71
2023-02-11T12:12:39.844Z,97.42
2023-02-11T12:14:53.813Z,97.48
2023-02-11T12:17:04.078Z,97.44
2023-02-11T12:19:38.151Z,97.23
2023-02-11T12:21:51.207Z,96.77
2023-02-11T12:24:15.694Z,96.67
2023-02-11T12:26:23.093Z,96.57
2023-02-11T12:28:36.986Z,96.65
2023-02-11T12:30:54.370Z,96.94
2023-02-11T12:33:12.730Z,96.71
2023-02-11T12:35:30.597Z,96.53
2023-02-11T12:37:45.260Z,96.79
2023-02-11T12:39:57.823Z,96.82
2023-02-11T12:42:45.812Z,97.18
2023-02-11T12:45:05.871Z,96.58
2023-02-11T12:47:22.148Z,97.14
2023-02-11T12:49:46.577Z,97.19
2023-02-11T12:52:08.148Z,97.40
2023-02-11T12:54:25.553Z,97.38
2023-02-11T12:56:38.791Z,97.28
2023-02-11T12:58:45.746Z,97.06
2023-02-11T13:00:54.163Z,97.14
2023-02-11T13:03:05.227Z,97.80
2023-02-11T13:05:20.801Z,97.04
2023-02-11T13:07:29.094Z,97.08
2023-02-11T13:09:40.150Z,97.31
2023-02-11T13:11:52.104Z,97.26
2023-02-11T13:14:01.498Z,97.35
2023-02-11T13:16:07.787Z,97.24
2023-02-11T13:18:22.994Z,97.58
2023-02-11T13:20:36.535Z,97.75
2023-02-11T13:22:45.054Z,97.99
2023-02-11T13:24:54.407Z,97.76
2023-02-11T13:27:11.485Z,97.52
2023-02-11T13:29:25.125Z,98.06
2023-02-11T13:31:30.262Z,97.69
2023-02-11T13:33:36.082Z,97.81
2023-02-11T13:35:41.146Z,97.32
2023-02-11T13:37:49.072Z,97.49
2023-02-11T13:40:01.013Z,97.60
2023-02-11T13:42:06.169Z,96.99
2023-02-11T13:44:26.384Z,97.50
2023-02-11T13:46:49.852Z,97.30
2023-02-11T13:48:55.122Z,97.35
2023-02-11T13:51:01.621Z,97.37
2023-02-11T13:53:07.323Z,97.75
2023-02-11T13:55:22.603Z,97.66
2023-02-11T13:57:45.156Z,97.79
2023-02-11T13:59:51.163Z,97.20
2023-02-11T14:02:24.654Z,97.52
2023-02-11T14:04:48.790Z,97.13
2023-02-11T14:07:44.480Z,97.71
2023-02-11T14:09:48.053Z,97.55
2023-02-11T14:11:55.345Z,97.97
2023-02-11T14:14:18.008Z,98.09
2023-02-11T14:16:36.893Z,97.60
2023-02-11T14:19:00.531Z,97.36
2023-02-11T14:21:13.173Z,97.95
2023-02-11T14:23:27.318Z,97.78
2023-02-11T14:25:31.402Z,97.58
2023-02-11T14:27:43.392Z,97.17
2023-02-11T14:29:59.495Z,96.86
2023-02-11T14:32:09.928Z,96.59
2023-02-11T14:34:35.702Z,96.75
2023-02-11T14:37:04.984Z,96.16
2023-02-11T14:39:18.488Z,96.54
2023-02-11T14:41:25.347Z,96.15
2023-02-11T14:43:34.359Z,96.11
2023-02-11T14:45:40.297Z,95.89
2023-02-11T14:47:50.554Z,95.77
2023-02-11T14:49:55.226Z,95.85
2023-02-11T14:52:05.052Z,96.03
2023-02-11T14:54:15.196Z,96.11
2023-02-11T14:56:21.613Z,96.55
2023-02-11T14:58:26.722Z,96.65
2023-02-11T15:00:30.495Z,97.14
2023-02-11T15:02:38.313Z,96.87
2023-02-11T15:04:42.829Z,96.89
2023-02-11T15:06:49.583Z,96.54
2023-02-11T15:08:57.196Z,96.83
2023-02-11T15:11:03.890Z,96.80
2023-02-11T15:13:07.578Z,97.08
2023-02-11T15:15:14.632Z,97.19
2023-02-11T15:17:23.122Z,96.28
2023-02-11T15:19:34.408Z,96.38
2023-02-11T15:21:38.275Z,96.16
2023-02-11T15:23:46.133Z,96.45
2023-02-11T15:25:52.977Z,95.95
2023-02-11T15:27:58.574Z,96.33
2023-02-11T15:30:02.139Z,95.60
2023-02-11T15:32:07.756Z,96.15
2023-02-11T15:34:13.197Z,95.60
2023-02-11T15:36:20.432Z,95.25
2023-02-11T15:38:24.287Z,95.41
2023-02-11T15:40:29.799Z,95.48
2023-02-11T15:42:47.240Z,95.24
2023-02-11T15:45:11.777Z,94.73
2023-02-11T15:47:20.865Z,95.29
2023-02-11T15:49:25.373Z,95.39
2023-02-11T15:51:34.211Z,95.21
2023-02-11T15:53:41.004Z,95.19
2023-02-11T15:55:44.576Z,94.71
2023-02-11T15:57:53.545Z,94.64
2023-02-11T15:59:57.414Z,94.64
2023-02-11T16:02:08.516Z,94.99
2023-02-11T16:04:18.206Z,94.54
2023-02-11T16:06:24.468Z,94.21
2023-02-11T16:08:32.759Z,94.25
2023-02-11T16:10:36.631Z,93.82
2023-02-11T16:12:40.018Z,93.92
2023-02-11T16:14:43.399Z,94.07
2023-02-11T16:16:49.753Z,93.75
2023-02-11T16:19:04.835Z,93.61
2023-02-11T16:21:16.805Z,94.08
2023-02-11T16:23:24.868Z,93.71
2023-02-11T16:25:29.683Z,94.08
2023-02-11T16:27:39.070Z,93.57
2023-02-11T16:29:47.422Z,93.85
2023-02-11T16:31:51.206Z,93.95
2023-02-11T16:33:54.525Z,93.46
2023-02-11T16:36:01.970Z,93.77
2023-02-11T16:38:05.290Z,94.17
2023-02-11T16:40:11.891Z,94.25
2023-02-11T16:42:16.650Z,94.45
2023-02-11T16:44:20.521Z,93.82
2023-02-11T16:46:24.094Z,94.31
2023-02-11T16:48:27.496Z,94.26
2023-02-11T16:50:30.947Z,94.41
2023-02-11T16:52:35.029Z,94.20
2023-02-11T16:54:38.342Z,94.21
2023-02-11T16:56:42.178Z,94.30
2023-02-11T16:58:46.900Z,93.94
2023-02-11T17:00:51.377Z,94.06
2023-02-11T17:02:55.065Z,94.12
2023-02-11T17:05:00.916Z,94.20
2023-02-11T17:07:04.323Z,94.32
2023-02-11T17:09:08.562Z,95.39
2023-02-11T17:11:16.601Z,94.72
2023-02-11T17:13:20.228Z,94.75
2023-02-11T17:15:24.899Z,94.59
2023-02-11T17:17:29.308Z,94.82
2023-02-11T17:19:32.678Z,94.74
2023-02-11T17:21:36.077Z,94.63
2023-02-11T17:23:39.465Z,95.08
2023-02-11T17:25:42.763Z,95.10
2023-02-11T17:27:46.204Z,95.21
2023-02-11T17:29:49.540Z,95.03
2023-02-11T17:31:54.512Z,95.54
2023-02-11T17:33:57.945Z,95.00
2023-02-11T17:36:04.637Z,94.91
2023-02-11T17:38:07.970Z,94.37
2023-02-11T17:40:12.803Z,94.23
2023-02-11T17:42:16.131Z,94.29
2023-02-11T17:44:19.436Z,94.36
2023-02-11T17:46:22.958Z,94.28
2023-02-11T17:48:27.808Z,94.33
2023-02-11T17:50:31.139Z,94.60
2023-02-11T17:52:34.465Z,94.49
2023-02-11T17:54:39.536Z,94.67
2023-02-11T17:56:44.103Z,94.37
2023-02-11T17:58:47.734Z,94.29
2023-02-11T18:00:51.440Z,94.18
2023-02-11T18:02:57.475Z,93.98
2023-02-11T18:05:02.447Z,94.34
2023-02-11T18:07:05.790Z,94.27
2023-02-11T18:09:09.137Z,94.29
2023-02-11T18:11:15.003Z,93.89
2023-02-11T18:13:18.413Z,94.25
2023-02-11T18:15:22.024Z,93.60
2023-02-11T18:17:25.465Z,93.48
2023-02-11T18:19:31.973Z,93.42
2023-02-11T18:21:37.570Z,93.82
2023-02-11T18:23:41.028Z,93.38
2023-02-11T18:25:44.900Z,93.35
2023-02-11T18:27:48.265Z,93.24
2023-02-11T18:29:51.783Z,93.87
2023-02-11T18:31:58.311Z,93.84
2023-02-11T18:34:01.966Z,93.69
2023-02-11T18:36:07.336Z,94.22
2023-02-11T18:38:12.125Z,94.82
2023-02-11T18:40:16.326Z,94.56
2023-02-11T18:42:19.639Z,94.17
2023-02-11T18:44:24.608Z,94.32
2023-02-11T18:46:28.111Z,94.50
2023-02-11T18:48:31.672Z,94.25
2023-02-11T18:50:35.033Z,94.09
2023-02-11T18:52:38.454Z,94.15
2023-02-11T18:54:43.146Z,93.63
2023-02-11T18:56:46.545Z,93.81
2023-02-11T18:58:51.371Z,94.19
2023-02-11T19:00:54.787Z,93.95
2023-02-11T19:02:58.749Z,93.48
2023-02-11T19:05:02.442Z,93.70
2023-02-11T19:07:05.760Z,93.42
2023-02-11T19:09:11.881Z,93.53
2023-02-11T19:11:18.625Z,93.24
2023-02-11T19:13:21.950Z,93.69
2023-02-11T19:15:25.710Z,93.50
2023-02-11T19:17:28.997Z,93.46
2023-02-11T19:19:35.991Z,93.17
2023-02-11T19:21:39.435Z,94.03
2023-02-11T19:23:43.078Z,93.91
2023-02-11T19:25:47.686Z,93.88
2023-02-11T19:27:52.425Z,93.67
2023-02-11T19:29:55.762Z,93.52
2023-02-11T19:31:59.160Z,93.66
2023-02-11T19:34:03.973Z,93.18
2023-02-11T19:36:09.631Z,93.05
2023-02-11T19:38:13.966Z,93.35
2023-02-11T19:40:17.691Z,93.02
2023-02-11T19:42:21.093Z,93.32
2023-02-11T19:44:25.947Z,92.96
2023-02-11T19:46:31.250Z,92.68
2023-02-11T19:48:34.812Z,92.91
2023-02-11T19:50:41.047Z,92.85
2023-02-11T19:52:44.351Z,92.54
2023-02-11T19:54:48.072Z,92.69
2023-02-11T19:56:51.402Z,92.72
2023-02-11T19:58:55.183Z,92.62
2023-02-11T20:01:07.557Z,93.01
2023-02-11T20:03:11.001Z,92.70
2023-02-11T20:05:14.402Z,92.95
2023-02-11T20:07:18.360Z,92.99
2023-02-11T20:09:22.762Z,92.36
2023-02-11T20:11:28.176Z,92.58
2023-02-11T20:13:31.846Z,92.42
2023-02-11T20:15:35.235Z,92.21
2023-02-11T20:17:39.998Z,92.30
2023-02-11T20:19:43.306Z,92.73
2023-02-11T20:21:48.429Z,92.50
2023-02-11T20:23:52.752Z,92.39
2023-02-11T20:25:56.301Z,92.41
2023-02-11T20:27:59.650Z,92.65
2023-02-11T20:30:03.000Z,92.29
2023-02-11T20:32:06.623Z,92.21
2023-02-11T20:34:12.487Z,92.42
2023-02-11T20:36:17.819Z,92.00
2023-02-11T20:38:21.265Z,91.99
2023-02-11T20:40:24.933Z,92.45
2023-02-11T20:42:28.574Z,92.27
2023-02-11T20:44:31.929Z,92.46
2023-02-11T20:46:38.026Z,91.96
2023-02-11T20:48:41.913Z,91.83
2023-02-11T20:50:48.307Z,92.17
2023-02-11T20:52:51.960Z,92.05
2023-02-11T20:54:55.319Z,92.10
2023-02-11T20:56:59.717Z,91.54
2023-02-11T20:59:04.342Z,91.82
2023-02-11T21:01:08.875Z,91.68
2023-02-11T21:03:12.233Z,92.01
2023-02-11T21:05:15.835Z,91.97
2023-02-11T21:07:20.493Z,91.76
2023-02-11T21:09:25.801Z,91.69
2023-02-11T21:11:31.089Z,91.55
2023-02-11T21:13:34.436Z,91.61
2023-02-11T21:15:37.780Z,91.90
2023-02-11T21:17:41.181Z,91.87
2023-02-11T21:19:44.825Z,91.57
2023-02-11T21:21:48.321Z,91.49
2023-02-11T21:23:53.675Z,91.43
2023-02-11T21:25:57.871Z,91.36
2023-02-11T21:28:01.233Z,91.69
2023-02-11T21:30:05.350Z,91.70
2023-02-11T21:32:08.805Z,91.48
2023-02-11T21:34:12.824Z,91.77
2023-02-11T21:36:16.143Z,91.93
2023-02-11T21:38:19.581Z,91.52
2023-02-11T21:40:27.344Z,91.75
2023-02-11T21:42:30.756Z,91.50
2023-02-11T21:44:34.116Z,91.40
2023-02-11T21:46:37.682Z,91.29
2023-02-11T21:48:41.402Z,91.31
2023-02-11T21:50:46.515Z,91.55
2023-02-11T21:52:49.866Z,91.29
2023-02-11T21:54:53.190Z,91.29
2023-02-11T21:56:58.053Z,91.24
2023-02-11T21:59:01.773Z,91.38
2023-02-11T22:01:12.370Z,91.10
2023-02-11T22:03:15.729Z,91.22
2023-02-11T22:05:19.187Z,91.27
2023-02-11T22:07:22.746Z,90.97
2023-02-11T22:09:26.079Z,91.08
2023-02-11T22:11:29.563Z,91.36
2023-02-11T22:13:34.785Z,91.11
2023-02-11T22:15:38.062Z,90.95
2023-02-11T22:17:41.509Z,91.24
2023-02-11T22:19:44.810Z,90.79
2023-02-11T22:21:48.197Z,90.84
2023-02-11T22:23:52.014Z,91.12
2023-02-11T22:25:55.829Z,91.10
2023-02-11T22:27:59.410Z,90.55
2023-02-11T22:30:04.888Z,90.65
2023-02-11T22:32:08.374Z,90.73
2023-02-11T22:34:11.713Z,90.77
2023-02-11T22:36:17.082Z,90.77
2023-02-11T22:38:20.718Z,91.03
2023-02-11T22:40:24.993Z,90.80
2023-02-11T22:42:28.351Z,91.19
2023-02-11T22:44:31.654Z,91.05
2023-02-11T22:46:36.919Z,91.14
2023-02-11T22:48:41.281Z,91.35
2023-02-11T22:50:44.625Z,91.42
2023-02-11T22:52:48.007Z,91.19
2023-02-11T22:54:51.971Z,91.57
2023-02-11T22:56:55.345Z,91.38
2023-02-11T22:58:59.633Z,91.26
2023-02-11T23:01:03.108Z,91.45
2023-02-11T23:03:09.563Z,91.09
2023-02-11T23:05:12.878Z,91.23
2023-02-11T23:07:16.240Z,91.01
2023-02-11T23:09:19.596Z,91.02
2023-02-11T23:11:28.298Z,91.48
2023-02-11T23:13:31.648Z,91.59
2023-02-11T23:15:35.417Z,91.25
2023-02-11T23:17:38.762Z,91.08
2023-02-11T23:19:43.423Z,91.13
2023-02-11T23:21:47.630Z,91.04
2023-02-11T23:23:56.062Z,91.38
2023-02-11T23:25:59.465Z,91.39
2023-02-11T23:28:02.930Z,91.57
2023-02-11T23:30:07.462Z,91.16
2023-02-11T23:32:10.851Z,91.35
2023-02-11T23:34:17.090Z,91.22
2023-02-11T23:36:22.976Z,91.63
2023-02-11T23:38:26.465Z,91.45
2023-02-11T23:40:29.752Z,91.35
2023-02-11T23:42:33.009Z,91.69
2023-02-11T23:44:36.279Z,91.40
2023-02-11T23:46:39.926Z,92.00
2023-02-11T23:48:45.055Z,91.61
2023-02-11T23:50:48.728Z,91.46
2023-02-11T23:52:53.489Z,91.85
2023-02-11T23:54:56.828Z,91.45
2023-02-11T23:57:00.268Z,91.30
2023-02-11T23:59:03.687Z,91.35
